sensor_id;sensor_type;location;lat;lon;timestamp;pressure;altitude;pressure_sealevel;temperature;humidity
72798;BME280;61084;55.816;37.036;2023-03-14T00:01:17;99107.06;;;-3.32;65.71
72798;BME280;61084;55.816;37.036;2023-03-14T00:03:43;99091.66;;;-3.28;65.12
72798;BME280;61084;55.816;37.036;2023-03-14T00:06:10;99093.38;;;-3.22;65.12
72798;BME280;61084;55.816;37.036;2023-03-14T00:08:37;99082.22;;;-3.17;65.21
72798;BME280;61084;55.816;37.036;2023-03-14T00:11:15;99078.75;;;-3.08;65.44
72798;BME280;61084;55.816;37.036;2023-03-14T00:13:41;99060.78;;;-3.03;65.33
72798;BME280;61084;55.816;37.036;2023-03-14T00:16:10;99063.31;;;-2.99;65.18
72798;BME280;61084;55.816;37.036;2023-03-14T00:18:37;99059.88;;;-2.93;65.37
72798;BME280;61084;55.816;37.036;2023-03-14T00:21:05;99047.88;;;-2.88;65.04
72798;BME280;61084;55.816;37.036;2023-03-14T00:23:32;99050.44;;;-2.85;65.53
72798;BME280;61084;55.816;37.036;2023-03-14T00:26:04;99042.69;;;-2.81;65.48
72798;BME280;61084;55.816;37.036;2023-03-14T00:28:30;99033.25;;;-2.80;65.53
72798;BME280;61084;55.816;37.036;2023-03-14T00:30:56;99040.06;;;-2.72;65.69
72798;BME280;61084;55.816;37.036;2023-03-14T00:33:22;99047.75;;;-2.72;65.91
72798;BME280;61084;55.816;37.036;2023-03-14T00:35:56;99046.88;;;-2.63;65.63
72798;BME280;61084;55.816;37.036;2023-03-14T00:38:23;99046.00;;;-2.59;65.80
72798;BME280;61084;55.816;37.036;2023-03-14T00:40:50;99049.38;;;-2.56;65.92
72798;BME280;61084;55.816;37.036;2023-03-14T00:43:17;99041.66;;;-2.51;66.15
72798;BME280;61084;55.816;37.036;2023-03-14T00:45:43;99037.34;;;-2.46;66.20
72798;BME280;61084;55.816;37.036;2023-03-14T00:48:09;99020.19;;;-2.44;66.11
72798;BME280;61084;55.816;37.036;2023-03-14T00:50:35;99029.56;;;-2.37;66.51
72798;BME280;61084;55.816;37.036;2023-03-14T00:53:01;99031.22;;;-2.32;66.45
72798;BME280;61084;55.816;37.036;2023-03-14T00:55:27;99023.47;;;-2.27;66.65
72798;BME280;61084;55.816;37.036;2023-03-14T00:57:53;99020.03;;;-2.26;66.30
72798;BME280;61084;55.816;37.036;2023-03-14T01:00:19;99024.28;;;-2.20;66.39
72798;BME280;61084;55.816;37.036;2023-03-14T01:02:44;99028.50;;;-2.15;66.96
72798;BME280;61084;55.816;37.036;2023-03-14T01:05:10;99016.47;;;-2.10;66.78
72798;BME280;61084;55.816;37.036;2023-03-14T01:07:37;99007.91;;;-2.07;66.91
72798;BME280;61084;55.816;37.036;2023-03-14T01:10:05;98997.56;;;-2.03;67.02
72798;BME280;61084;55.816;37.036;2023-03-14T01:12:31;98977.88;;;-2.02;66.65
72798;BME280;61084;55.816;37.036;2023-03-14T01:14:57;98964.97;;;-2.01;67.24
72798;BME280;61084;55.816;37.036;2023-03-14T01:17:23;98961.53;;;-1.98;66.60
72798;BME280;61084;55.816;37.036;2023-03-14T01:19:49;98963.28;;;-2.00;68.21
72798;BME280;61084;55.816;37.036;2023-03-14T01:22:15;98947.81;;;-1.99;67.04
72798;BME280;61084;55.816;37.036;2023-03-14T01:24:41;98946.09;;;-1.97;67.46
72798;BME280;61084;55.816;37.036;2023-03-14T01:27:06;98951.19;;;-1.95;68.05
72798;BME280;61084;55.816;37.036;2023-03-14T01:29:32;98954.59;;;-1.90;66.89
72798;BME280;61084;55.816;37.036;2023-03-14T01:31:58;98926.28;;;-1.89;67.32
72798;BME280;61084;55.816;37.036;2023-03-14T01:34:24;98920.25;;;-1.86;67.88
72798;BME280;61084;55.816;37.036;2023-03-14T01:36:50;98919.38;;;-1.87;67.76
72798;BME280;61084;55.816;37.036;2023-03-14T01:39:16;98920.19;;;-1.82;67.86
72798;BME280;61084;55.816;37.036;2023-03-14T01:41:42;98915.88;;;-1.77;67.98
72798;BME280;61084;55.816;37.036;2023-03-14T01:44:12;98903.78;;;-1.70;68.46
72798;BME280;61084;55.816;37.036;2023-03-14T01:46:43;98895.13;;;-1.65;68.02
72798;BME280;61084;55.816;37.036;2023-03-14T01:49:29;98889.06;;;-1.59;68.26
72798;BME280;61084;55.816;37.036;2023-03-14T01:52:20;98899.31;;;-1.55;68.61
72798;BME280;61084;55.816;37.036;2023-03-14T01:55:01;98893.19;;;-1.47;68.72
72798;BME280;61084;55.816;37.036;2023-03-14T01:57:35;98896.53;;;-1.41;68.77
72798;BME280;61084;55.816;37.036;2023-03-14T02:00:07;98903.31;;;-1.35;68.81
72798;BME280;61084;55.816;37.036;2023-03-14T02:02:55;98868.91;;;-1.28;69.31
72798;BME280;61084;55.816;37.036;2023-03-14T02:05:25;98862.84;;;-1.24;68.63
72798;BME280;61084;55.816;37.036;2023-03-14T02:08:08;98863.59;;;-1.18;69.21
72798;BME280;61084;55.816;37.036;2023-03-14T02:10:45;98845.53;;;-1.15;69.22
72798;BME280;61084;55.816;37.036;2023-03-14T02:13:12;98852.31;;;-1.09;70.06
72798;BME280;61084;55.816;37.036;2023-03-14T02:15:45;98845.38;;;-1.06;69.55
72798;BME280;61084;55.816;37.036;2023-03-14T02:18:31;98836.72;;;-1.00;69.66
72798;BME280;61084;55.816;37.036;2023-03-14T02:21:20;98831.44;;;-0.93;69.81
72798;BME280;61084;55.816;37.036;2023-03-14T02:24:27;98828.75;;;-0.85;70.02
72798;BME280;61084;55.816;37.036;2023-03-14T02:29:44;98814.09;;;-0.82;69.72
72798;BME280;61084;55.816;37.036;2023-03-14T02:32:14;98814.00;;;-0.77;70.24
72798;BME280;61084;55.816;37.036;2023-03-14T02:34:42;98795.00;;;-0.71;70.31
72798;BME280;61084;55.816;37.036;2023-03-14T02:37:09;98801.84;;;-0.69;70.41
72798;BME280;61084;55.816;37.036;2023-03-14T02:39:42;98793.97;;;-0.63;70.26
72798;BME280;61084;55.816;37.036;2023-03-14T02:42:10;98801.63;;;-0.57;69.98
72798;BME280;61084;55.816;37.036;2023-03-14T02:44:48;98796.47;;;-0.57;69.90
72798;BME280;61084;55.816;37.036;2023-03-14T02:47:14;98812.69;;;-0.52;70.36
72798;BME280;61084;55.816;37.036;2023-03-14T02:49:40;98813.50;;;-0.48;70.31
72798;BME280;61084;55.816;37.036;2023-03-14T02:52:06;98816.03;;;-0.47;70.14
72798;BME280;61084;55.816;37.036;2023-03-14T02:54:32;98809.13;;;-0.45;69.22
72798;BME280;61084;55.816;37.036;2023-03-14T02:56:58;98808.25;;;-0.45;69.94
72798;BME280;61084;55.816;37.036;2023-03-14T02:59:23;98800.44;;;-0.41;70.08
72798;BME280;61084;55.816;37.036;2023-03-14T03:01:54;98787.50;;;-0.38;70.42
72798;BME280;61084;55.816;37.036;2023-03-14T03:04:20;98771.16;;;-0.35;69.90
72798;BME280;61084;55.816;37.036;2023-03-14T03:06:45;98784.81;;;-0.32;70.58
72798;BME280;61084;55.816;37.036;2023-03-14T03:09:12;98781.31;;;-0.29;70.33
72798;BME280;61084;55.816;37.036;2023-03-14T03:11:37;98771.78;;;-0.26;70.20
72798;BME280;61084;55.816;37.036;2023-03-14T03:14:05;98767.50;;;-0.25;71.78
72798;BME280;61084;55.816;37.036;2023-03-14T03:16:30;98767.44;;;-0.22;71.33
72798;BME280;61084;55.816;37.036;2023-03-14T03:18:56;98757.91;;;-0.19;70.93
72798;BME280;61084;55.816;37.036;2023-03-14T03:21:22;98756.94;;;-0.13;70.66
72798;BME280;61084;55.816;37.036;2023-03-14T03:23:50;98749.94;;;-0.08;70.84
72798;BME280;61084;55.816;37.036;2023-03-14T03:26:16;98743.00;;;-0.05;70.96
72798;BME280;61084;55.816;37.036;2023-03-14T03:28:42;98741.19;;;-0.01;70.70
72798;BME280;61084;55.816;37.036;2023-03-14T03:31:10;98730.88;;;-0.01;70.61
72798;BME280;61084;55.816;37.036;2023-03-14T03:33:37;98736.81;;;0.04;71.03
72798;BME280;61084;55.816;37.036;2023-03-14T03:36:04;98734.13;;;0.07;71.07
72798;BME280;61084;55.816;37.036;2023-03-14T03:38:33;98722.00;;;0.12;70.64
72798;BME280;61084;55.816;37.036;2023-03-14T03:41:04;98712.44;;;0.16;71.13
72798;BME280;61084;55.816;37.036;2023-03-14T03:43:30;98703.75;;;0.20;71.05
72798;BME280;61084;55.816;37.036;2023-03-14T03:45:57;98708.84;;;0.23;71.30
72798;BME280;61084;55.816;37.036;2023-03-14T03:48:23;98700.25;;;0.24;70.79
72798;BME280;61084;55.816;37.036;2023-03-14T03:50:49;98701.84;;;0.28;71.29
72798;BME280;61084;55.816;37.036;2023-03-14T03:53:19;98693.22;;;0.29;71.00
72798;BME280;61084;55.816;37.036;2023-03-14T03:55:45;98687.13;;;0.31;71.11
72798;BME280;61084;55.816;37.036;2023-03-14T03:58:10;98691.38;;;0.34;71.09
72798;BME280;61084;55.816;37.036;2023-03-14T04:00:36;98703.38;;;0.36;71.26
72798;BME280;61084;55.816;37.036;2023-03-14T04:03:02;98707.63;;;0.39;71.17
72798;BME280;61084;55.816;37.036;2023-03-14T04:05:28;98711.81;;;0.43;70.87
72798;BME280;61084;55.816;37.036;2023-03-14T04:08:00;98700.53;;;0.47;71.07
72798;BME280;61084;55.816;37.036;2023-03-14T04:10:28;98690.09;;;0.51;70.19
72798;BME280;61084;55.816;37.036;2023-03-14T04:13:17;98679.72;;;0.53;70.89
72798;BME280;61084;55.816;37.036;2023-03-14T04:15:47;98679.66;;;0.56;70.95
72798;BME280;61084;55.816;37.036;2023-03-14T04:18:19;98683.06;;;0.58;71.06
72798;BME280;61084;55.816;37.036;2023-03-14T04:20:45;98678.63;;;0.63;71.26
72798;BME280;61084;55.816;37.036;2023-03-14T04:23:11;98661.38;;;0.65;70.96
72798;BME280;61084;55.816;37.036;2023-03-14T04:25:38;98660.34;;;0.70;71.21
72798;BME280;61084;55.816;37.036;2023-03-14T04:28:04;98653.41;;;0.72;70.88
72798;BME280;61084;55.816;37.036;2023-03-14T04:30:31;98648.19;;;0.74;71.17
72798;BME280;61084;55.816;37.036;2023-03-14T04:33:05;98643.81;;;0.77;71.64
72798;BME280;61084;55.816;37.036;2023-03-14T04:35:36;98635.97;;;0.81;71.26
72798;BME280;61084;55.816;37.036;2023-03-14T04:38:07;98623.78;;;0.86;71.19
72798;BME280;61084;55.816;37.036;2023-03-14T04:40:37;98620.28;;;0.88;71.70
72798;BME280;61084;55.816;37.036;2023-03-14T04:43:05;98623.59;;;0.93;71.45
72798;BME280;61084;55.816;37.036;2023-03-14T04:45:31;98616.59;;;0.97;71.66
72798;BME280;61084;55.816;37.036;2023-03-14T04:47:59;98608.78;;;1.00;71.63
72798;BME280;61084;55.816;37.036;2023-03-14T04:50:24;98610.44;;;1.02;71.47
72798;BME280;61084;55.816;37.036;2023-03-14T04:52:50;98594.75;;;1.08;71.59
72798;BME280;61084;55.816;37.036;2023-03-14T04:55:17;98597.25;;;1.11;71.99
72798;BME280;61084;55.816;37.036;2023-03-14T04:57:42;98590.22;;;1.16;71.56
72798;BME280;61084;55.816;37.036;2023-03-14T05:00:11;98599.56;;;1.20;71.61
72798;BME280;61084;55.816;37.036;2023-03-14T05:02:49;98586.56;;;1.23;71.46
72798;BME280;61084;55.816;37.036;2023-03-14T05:05:22;98594.19;;;1.28;71.62
72798;BME280;61084;55.816;37.036;2023-03-14T05:08:11;98597.59;;;1.30;71.38
72798;BME280;61084;55.816;37.036;2023-03-14T05:10:37;98600.97;;;1.32;71.01
72798;BME280;61084;55.816;37.036;2023-03-14T05:13:14;98593.28;;;1.30;71.58
72798;BME280;61084;55.816;37.036;2023-03-14T05:15:49;98599.94;;;1.37;71.84
72798;BME280;61084;55.816;37.036;2023-03-14T05:18:39;98600.66;;;1.42;71.82
72798;BME280;61084;55.816;37.036;2023-03-14T05:21:28;98597.06;;;1.46;72.21
72798;BME280;61084;55.816;37.036;2023-03-14T05:24:11;98607.34;;;1.49;71.78
72798;BME280;61084;55.816;37.036;2023-03-14T05:26:57;98614.06;;;1.55;71.78
72798;BME280;61084;55.816;37.036;2023-03-14T05:29:48;98621.78;;;1.57;71.44
72798;BME280;61084;55.816;37.036;2023-03-14T05:32:40;98621.63;;;1.61;71.98
72798;BME280;61084;55.816;37.036;2023-03-14T05:35:24;98617.28;;;1.63;71.71
72798;BME280;61084;55.816;37.036;2023-03-14T05:38:06;98618.88;;;1.67;71.57
72798;BME280;61084;55.816;37.036;2023-03-14T05:40:50;98629.03;;;1.73;70.84
72798;BME280;61084;55.816;37.036;2023-03-14T05:43:36;98638.41;;;1.77;71.68
72798;BME280;61084;55.816;37.036;2023-03-14T05:46:20;98639.06;;;1.84;72.27
72798;BME280;61084;55.816;37.036;2023-03-14T05:49:04;98630.25;;;1.89;71.97
72798;BME280;61084;55.816;37.036;2023-03-14T05:52:02;98641.25;;;1.96;71.38
72798;BME280;61084;55.816;37.036;2023-03-14T05:54:34;98639.38;;;2.01;71.95
72798;BME280;61084;55.816;37.036;2023-03-14T05:57:12;98643.47;;;2.08;71.67
72798;BME280;61084;55.816;37.036;2023-03-14T05:59:55;98633.00;;;2.12;71.93
72798;BME280;61084;55.816;37.036;2023-03-14T06:02:47;98631.09;;;2.17;71.58
72798;BME280;61084;55.816;37.036;2023-03-14T06:05:21;98627.53;;;2.21;71.96
72798;BME280;61084;55.816;37.036;2023-03-14T06:07:49;98624.81;;;2.24;71.47
72798;BME280;61084;55.816;37.036;2023-03-14T06:10:15;98633.34;;;2.28;71.40
72798;BME280;61084;55.816;37.036;2023-03-14T06:12:41;98624.59;;;2.32;71.74
72798;BME280;61084;55.816;37.036;2023-03-14T06:15:07;98634.00;;;2.35;71.74
72798;BME280;61084;55.816;37.036;2023-03-14T06:17:33;98629.63;;;2.37;71.83
72798;BME280;61084;55.816;37.036;2023-03-14T06:20:05;98635.59;;;2.39;71.59
72798;BME280;61084;55.816;37.036;2023-03-14T06:22:31;98620.78;;;2.42;70.99
72798;BME280;61084;55.816;37.036;2023-03-14T06:24:57;98632.00;;;2.43;71.77
72798;BME280;61084;55.816;37.036;2023-03-14T06:27:24;98632.00;;;2.43;71.80
72798;BME280;61084;55.816;37.036;2023-03-14T06:29:53;98633.50;;;2.50;71.40
72798;BME280;61084;55.816;37.036;2023-03-14T06:32:19;98635.94;;;2.54;71.33
72798;BME280;61084;55.816;37.036;2023-03-14T06:34:48;98628.91;;;2.58;71.03
72798;BME280;61084;55.816;37.036;2023-03-14T06:37:14;98639.97;;;2.63;71.71
72798;BME280;61084;55.816;37.036;2023-03-14T06:39:40;98632.88;;;2.68;71.68
72798;BME280;61084;55.816;37.036;2023-03-14T06:42:14;98627.44;;;2.75;71.90
72798;BME280;61084;55.816;37.036;2023-03-14T06:44:41;98621.25;;;2.79;71.35
72798;BME280;61084;55.816;37.036;2023-03-14T06:47:07;98614.22;;;2.83;71.02
72798;BME280;61084;55.816;37.036;2023-03-14T06:49:34;98619.34;;;2.84;71.12
72798;BME280;61084;55.816;37.036;2023-03-14T06:52:01;98623.53;;;2.88;71.17
72798;BME280;61084;55.816;37.036;2023-03-14T06:54:29;98615.63;;;2.91;71.04
72798;BME280;61084;55.816;37.036;2023-03-14T06:56:54;98625.03;;;2.94;71.06
72798;BME280;61084;55.816;37.036;2023-03-14T06:59:20;98624.09;;;2.96;70.88
72798;BME280;61084;55.816;37.036;2023-03-14T07:01:48;98624.03;;;2.98;71.02
72798;BME280;61084;55.816;37.036;2023-03-14T07:04:16;98627.38;;;3.01;71.12
72798;BME280;61084;55.816;37.036;2023-03-14T07:06:46;98620.31;;;3.07;71.14
72798;BME280;61084;55.816;37.036;2023-03-14T07:09:14;98606.19;;;3.14;71.10
72798;BME280;61084;55.816;37.036;2023-03-14T07:11:47;98613.81;;;3.18;70.89
72798;BME280;61084;55.816;37.036;2023-03-14T07:14:14;98623.97;;;3.24;71.17
72798;BME280;61084;55.816;37.036;2023-03-14T07:16:39;98619.53;;;3.28;71.25
72798;BME280;61084;55.816;37.036;2023-03-14T07:19:06;98630.69;;;3.30;70.74
72798;BME280;61084;55.816;37.036;2023-03-14T07:21:32;98635.72;;;3.34;71.16
72798;BME280;61084;55.816;37.036;2023-03-14T07:24:03;98629.41;;;3.41;70.97
72798;BME280;61084;55.816;37.036;2023-03-14T07:26:30;98630.97;;;3.45;70.92
72798;BME280;61084;55.816;37.036;2023-03-14T07:28:56;98626.56;;;3.47;70.67
72798;BME280;61084;55.816;37.036;2023-03-14T07:31:23;98629.97;;;3.49;70.64
72798;BME280;61084;55.816;37.036;2023-03-14T07:33:49;98626.50;;;3.49;70.46
72798;BME280;61084;55.816;37.036;2023-03-14T07:36:16;98634.13;;;3.53;70.24
72798;BME280;61084;55.816;37.036;2023-03-14T07:38:44;98636.66;;;3.55;70.63
72798;BME280;61084;55.816;37.036;2023-03-14T07:41:12;98638.38;;;3.56;70.75
72798;BME280;61084;55.816;37.036;2023-03-14T07:43:57;98629.63;;;3.58;70.67
72798;BME280;61084;55.816;37.036;2023-03-14T07:46:23;98624.25;;;3.63;70.30
72798;BME280;61084;55.816;37.036;2023-03-14T07:48:48;98612.97;;;3.64;70.65
72798;BME280;61084;55.816;37.036;2023-03-14T07:51:14;98615.31;;;3.70;70.31
72798;BME280;61084;55.816;37.036;2023-03-14T07:53:40;98628.97;;;3.75;70.50
72798;BME280;61084;55.816;37.036;2023-03-14T07:56:06;98637.56;;;3.77;69.80
72798;BME280;61084;55.816;37.036;2023-03-14T07:58:32;98640.06;;;3.78;70.09
72798;BME280;61084;55.816;37.036;2023-03-14T08:00:58;98634.09;;;3.76;70.10
72798;BME280;61084;55.816;37.036;2023-03-14T08:03:24;98637.47;;;3.78;70.22
72798;BME280;61084;55.816;37.036;2023-03-14T08:05:50;98634.78;;;3.81;69.58
72798;BME280;61084;55.816;37.036;2023-03-14T08:08:17;98635.56;;;3.83;70.06
72798;BME280;61084;55.816;37.036;2023-03-14T08:10:43;98632.09;;;3.85;69.67
72798;BME280;61084;55.816;37.036;2023-03-14T08:13:10;98626.81;;;3.86;70.07
72798;BME280;61084;55.816;37.036;2023-03-14T08:15:36;98624.22;;;3.86;69.96
72798;BME280;61084;55.816;37.036;2023-03-14T08:18:03;98622.41;;;3.88;69.99
72798;BME280;61084;55.816;37.036;2023-03-14T08:20:29;98625.69;;;3.93;70.06
72798;BME280;61084;55.816;37.036;2023-03-14T08:23:00;98622.91;;;3.98;69.80
72798;BME280;61084;55.816;37.036;2023-03-14T08:25:27;98623.69;;;4.00;70.07
72798;BME280;61084;55.816;37.036;2023-03-14T08:27:53;98626.03;;;4.06;69.47
72798;BME280;61084;55.816;37.036;2023-03-14T08:30:20;98627.63;;;4.10;69.82
72798;BME280;61084;55.816;37.036;2023-03-14T08:32:46;98623.09;;;4.15;69.56
72798;BME280;61084;55.816;37.036;2023-03-14T08:35:13;98621.13;;;4.20;69.50
72798;BME280;61084;55.816;37.036;2023-03-14T08:37:39;98620.97;;;4.24;69.16
72798;BME280;61084;55.816;37.036;2023-03-14T08:40:06;98624.28;;;4.28;69.10
72798;BME280;61084;55.816;37.036;2023-03-14T08:42:33;98629.34;;;4.31;69.22
72798;BME280;61084;55.816;37.036;2023-03-14T08:44:59;98616.38;;;4.31;69.06
72798;BME280;61084;55.816;37.036;2023-03-14T08:47:25;98625.84;;;4.32;69.20
72798;BME280;61084;55.816;37.036;2023-03-14T08:49:50;98612.03;;;4.31;69.01
72798;BME280;61084;55.816;37.036;2023-03-14T08:52:16;98618.00;;;4.33;68.75
72798;BME280;61084;55.816;37.036;2023-03-14T08:54:45;98609.16;;;4.37;68.86
72798;BME280;61084;55.816;37.036;2023-03-14T08:57:11;98614.34;;;4.37;68.15
72798;BME280;61084;55.816;37.036;2023-03-14T08:59:37;98606.53;;;4.39;68.23
72798;BME280;61084;55.816;37.036;2023-03-14T09:02:03;98602.03;;;4.42;68.06
72798;BME280;61084;55.816;37.036;2023-03-14T09:04:30;98613.22;;;4.44;68.38
72798;BME280;61084;55.816;37.036;2023-03-14T09:06:56;98625.06;;;4.51;68.32
72798;BME280;61084;55.816;37.036;2023-03-14T09:09:24;98615.50;;;4.52;68.18
72798;BME280;61084;55.816;37.036;2023-03-14T09:11:56;98632.50;;;4.59;68.37
72798;BME280;61084;55.816;37.036;2023-03-14T09:14:23;98637.59;;;4.62;68.13
72798;BME280;61084;55.816;37.036;2023-03-14T09:16:49;98642.78;;;4.62;68.26
72798;BME280;61084;55.816;37.036;2023-03-14T09:19:16;98642.88;;;4.61;67.58
72798;BME280;61084;55.816;37.036;2023-03-14T09:21:42;98629.91;;;4.59;67.87
72798;BME280;61084;55.816;37.036;2023-03-14T09:24:07;98638.50;;;4.61;68.12
72798;BME280;61084;55.816;37.036;2023-03-14T09:26:33;98638.56;;;4.59;67.65
72798;BME280;61084;55.816;37.036;2023-03-14T09:28:59;98647.22;;;4.60;67.80
72798;BME280;61084;55.816;37.036;2023-03-14T09:31:25;98644.53;;;4.62;67.63
72798;BME280;61084;55.816;37.036;2023-03-14T09:33:50;98643.75;;;4.59;67.27
72798;BME280;61084;55.816;37.036;2023-03-14T09:36:16;98652.41;;;4.60;67.82
72798;BME280;61084;55.816;37.036;2023-03-14T09:38:42;98648.88;;;4.61;67.83
72798;BME280;61084;55.816;37.036;2023-03-14T09:41:15;98649.69;;;4.63;67.65
72798;BME280;61084;55.816;37.036;2023-03-14T09:43:45;98645.31;;;4.64;67.69
72798;BME280;61084;55.816;37.036;2023-03-14T09:46:12;98644.50;;;4.63;67.32
72798;BME280;61084;55.816;37.036;2023-03-14T09:48:39;98652.28;;;4.63;67.46
72798;BME280;61084;55.816;37.036;2023-03-14T09:51:14;98633.38;;;4.59;67.64
72798;BME280;61084;55.816;37.036;2023-03-14T09:53:44;98624.88;;;4.56;67.66
72798;BME280;61084;55.816;37.036;2023-03-14T09:58:45;98623.75;;;4.62;68.64
72798;BME280;61084;55.816;37.036;2023-03-14T10:01:16;98617.41;;;4.69;68.36
72798;BME280;61084;55.816;37.036;2023-03-14T10:03:45;98612.84;;;4.74;69.18
72798;BME280;61084;55.816;37.036;2023-03-14T10:06:12;98624.88;;;4.76;69.10
72798;BME280;61084;55.816;37.036;2023-03-14T10:08:43;98629.16;;;4.77;69.03
72798;BME280;61084;55.816;37.036;2023-03-14T10:11:15;98623.19;;;4.75;68.71
72798;BME280;61084;55.816;37.036;2023-03-14T10:14:10;98623.25;;;4.74;68.98
72798;BME280;61084;55.816;37.036;2023-03-14T10:16:41;98630.00;;;4.78;68.66
72798;BME280;61084;55.816;37.036;2023-03-14T10:19:11;98627.25;;;4.81;68.97
72798;BME280;61084;55.816;37.036;2023-03-14T10:21:40;98615.97;;;4.82;68.96
72798;BME280;61084;55.816;37.036;2023-03-14T10:27:28;98607.97;;;4.86;68.81
72798;BME280;61084;55.816;37.036;2023-03-14T10:30:00;98598.25;;;4.91;68.79
72798;BME280;61084;55.816;37.036;2023-03-14T10:32:36;98604.91;;;4.97;69.13
72798;BME280;61084;55.816;37.036;2023-03-14T10:37:31;98590.00;;;5.00;69.02
72798;BME280;61084;55.816;37.036;2023-03-14T10:40:01;98599.50;;;5.01;68.57
72798;BME280;61084;55.816;37.036;2023-03-14T10:42:49;98589.13;;;5.01;68.21
72798;BME280;61084;55.816;37.036;2023-03-14T10:51:07;98568.81;;;5.09;68.11
72798;BME280;61084;55.816;37.036;2023-03-14T10:53:57;98568.13;;;5.06;68.30
72798;BME280;61084;55.816;37.036;2023-03-14T10:56:25;98573.97;;;5.11;67.89
72798;BME280;61084;55.816;37.036;2023-03-14T10:58:53;98581.69;;;5.12;67.98
72798;BME280;61084;55.816;37.036;2023-03-14T11:09:47;98572.44;;;5.25;67.36
72798;BME280;61084;55.816;37.036;2023-03-14T11:14:46;98560.47;;;5.40;66.46
72798;BME280;61084;55.816;37.036;2023-03-14T11:17:41;98564.50;;;5.47;67.26
72798;BME280;61084;55.816;37.036;2023-03-14T11:23:18;98566.69;;;5.56;66.69
72798;BME280;61084;55.816;37.036;2023-03-14T11:31:35;98570.81;;;5.60;65.96
72798;BME280;61084;55.816;37.036;2023-03-14T11:36:39;98576.03;;;5.60;65.92
72798;BME280;61084;55.816;37.036;2023-03-14T11:39:18;98575.19;;;5.60;66.07
72798;BME280;61084;55.816;37.036;2023-03-14T11:41:47;98583.75;;;5.62;65.75
72798;BME280;61084;55.816;37.036;2023-03-14T11:44:30;98583.75;;;5.62;65.77
72798;BME280;61084;55.816;37.036;2023-03-14T11:47:10;98589.03;;;5.60;65.47
72798;BME280;61084;55.816;37.036;2023-03-14T11:49:58;98588.28;;;5.58;65.30
72798;BME280;61084;55.816;37.036;2023-03-14T11:52:35;98615.94;;;5.61;65.62
72798;BME280;61084;55.816;37.036;2023-03-14T11:57:55;98619.44;;;5.60;65.17
72798;BME280;61084;55.816;37.036;2023-03-14T12:00:23;98623.88;;;5.58;65.20
72798;BME280;61084;55.816;37.036;2023-03-14T12:03:06;98608.16;;;5.59;65.17
72798;BME280;61084;55.816;37.036;2023-03-14T12:06:00;98610.50;;;5.65;65.47
72798;BME280;61084;55.816;37.036;2023-03-14T12:08:47;98613.16;;;5.64;65.01
72798;BME280;61084;55.816;37.036;2023-03-14T12:13:50;98614.00;;;5.64;64.99
72798;BME280;61084;55.816;37.036;2023-03-14T12:16:36;98614.09;;;5.63;65.14
72798;BME280;61084;55.816;37.036;2023-03-14T12:19:25;98630.59;;;5.62;64.49
72798;BME280;61084;55.816;37.036;2023-03-14T12:22:08;98634.28;;;5.58;64.88
72798;BME280;61084;55.816;37.036;2023-03-14T12:24:39;98632.44;;;5.60;65.02
72798;BME280;61084;55.816;37.036;2023-03-14T12:27:13;98634.19;;;5.59;64.61
72798;BME280;61084;55.816;37.036;2023-03-14T12:30:01;98633.22;;;5.62;64.76
72798;BME280;61084;55.816;37.036;2023-03-14T12:32:27;98633.22;;;5.62;64.97
72798;BME280;61084;55.816;37.036;2023-03-14T12:34:54;98622.75;;;5.63;64.59
72798;BME280;61084;55.816;37.036;2023-03-14T12:37:31;98609.44;;;5.69;64.60
72798;BME280;61084;55.816;37.036;2023-03-14T12:40:20;98602.50;;;5.70;65.15
72798;BME280;61084;55.816;37.036;2023-03-14T12:43:01;98601.34;;;5.75;64.57
72798;BME280;61084;55.816;37.036;2023-03-14T12:45:33;98605.56;;;5.78;64.64
72798;BME280;61084;55.816;37.036;2023-03-14T12:48:13;98601.13;;;5.80;64.90
72798;BME280;61084;55.816;37.036;2023-03-14T12:50:54;98597.56;;;5.82;64.37
72798;BME280;61084;55.816;37.036;2023-03-14T13:01:35;98604.66;;;5.79;64.17
72798;BME280;61084;55.816;37.036;2023-03-14T13:04:09;98594.38;;;5.76;64.49
72798;BME280;61084;55.816;37.036;2023-03-14T13:09:35;98600.38;;;5.78;64.29
72798;BME280;61084;55.816;37.036;2023-03-14T13:12:13;98587.34;;;5.78;64.30
72798;BME280;61084;55.816;37.036;2023-03-14T13:14:46;98602.03;;;5.79;63.61
72798;BME280;61084;55.816;37.036;2023-03-14T13:17:15;98591.78;;;5.76;64.14
72798;BME280;61084;55.816;37.036;2023-03-14T13:19:51;98592.56;;;5.78;63.93
72798;BME280;61084;55.816;37.036;2023-03-14T13:22:24;98590.09;;;5.75;64.14
72798;BME280;61084;55.816;37.036;2023-03-14T13:25:09;98604.03;;;5.74;63.82
72798;BME280;61084;55.816;37.036;2023-03-14T13:27:35;98620.56;;;5.73;63.98
72798;BME280;61084;55.816;37.036;2023-03-14T13:32:47;98616.34;;;5.70;62.88
72798;BME280;61084;55.816;37.036;2023-03-14T13:35:17;98602.50;;;5.70;64.02
72798;BME280;61084;55.816;37.036;2023-03-14T13:37:44;98606.84;;;5.69;63.63
72798;BME280;61084;55.816;37.036;2023-03-14T13:40:26;98598.09;;;5.70;63.40
72798;BME280;61084;55.816;37.036;2023-03-14T13:43:13;98616.34;;;5.70;63.42
72798;BME280;61084;55.816;37.036;2023-03-14T13:45:45;98618.88;;;5.72;62.76
72798;BME280;61084;55.816;37.036;2023-03-14T13:48:13;98610.22;;;5.71;63.13
72798;BME280;61084;55.816;37.036;2023-03-14T13:50:51;98613.69;;;5.72;63.53
72798;BME280;61084;55.816;37.036;2023-03-14T13:53:18;98610.13;;;5.73;62.74
72798;BME280;61084;55.816;37.036;2023-03-14T13:55:44;98599.81;;;5.71;63.01
72798;BME280;61084;55.816;37.036;2023-03-14T13:58:29;98605.00;;;5.71;63.03
72798;BME280;61084;55.816;37.036;2023-03-14T14:01:16;98603.25;;;5.72;62.84
72798;BME280;61084;55.816;37.036;2023-03-14T14:03:45;98590.16;;;5.73;63.13
72798;BME280;61084;55.816;37.036;2023-03-14T14:06:26;98604.09;;;5.72;62.89
72798;BME280;61084;55.816;37.036;2023-03-14T14:08:56;98588.47;;;5.72;62.07
72798;BME280;61084;55.816;37.036;2023-03-14T14:14:15;98603.19;;;5.73;62.59
72798;BME280;61084;55.816;37.036;2023-03-14T14:16:44;98591.91;;;5.73;61.92
72798;BME280;61084;55.816;37.036;2023-03-14T14:19:13;98602.34;;;5.73;62.65